createdAt,value
2022-08-18T00:01:25.640Z,4.37
2022-08-18T00:03:59.385Z,4.10
2022-08-18T00:06:31.058Z,3.67
2022-08-18T00:09:00.739Z,3.83
2022-08-18T00:11:41.588Z,3.80
2022-08-18T00:14:22.524Z,4.07
2022-08-18T00:16:53.942Z,4.35
2022-08-18T00:19:43.680Z,3.83
2022-08-18T00:22:15.402Z,3.65
2022-08-18T00:24:50.984Z,4.12
2022-08-18T00:27:23.180Z,5.00
2022-08-18T00:29:52.045Z,5.60
2022-08-18T00:32:26.802Z,4.80
2022-08-18T00:34:54.872Z,4.12
2022-08-18T00:37:24.001Z,5.00
2022-08-18T00:39:55.493Z,4.07
2022-08-18T00:42:31.330Z,4.25
2022-08-18T00:45:05.181Z,4.40
2022-08-18T00:47:42.304Z,4.78
2022-08-18T00:50:28.014Z,4.72
2022-08-18T00:53:06.087Z,4.55
2022-08-18T00:55:35.012Z,3.80
2022-08-18T00:58:17.005Z,4.32
2022-08-18T01:00:46.911Z,4.12
2022-08-18T01:03:24.552Z,4.37
2022-08-18T01:06:04.919Z,5.70
2022-08-18T01:08:32.968Z,5.07
2022-08-18T01:11:03.919Z,3.50
2022-08-18T01:13:34.091Z,4.12
2022-08-18T01:16:22.414Z,4.10
2022-08-18T01:19:08.655Z,4.65
2022-08-18T01:21:53.180Z,4.80
2022-08-18T01:24:44.665Z,5.28
2022-08-18T01:27:19.487Z,4.50
2022-08-18T01:29:50.633Z,4.20
2022-08-18T01:32:24.412Z,4.28
2022-08-18T01:34:53.487Z,4.40
2022-08-18T01:37:24.323Z,4.75
2022-08-18T01:41:23.807Z,5.65
2022-08-18T01:42:40.869Z,4.72
2022-08-18T01:45:09.323Z,5.40
2022-08-18T01:47:47.846Z,4.70
2022-08-18T01:50:26.396Z,7.65
2022-08-18T01:52:54.774Z,4.65
2022-08-18T01:55:22.882Z,5.78
2022-08-18T01:57:50.910Z,4.87
2022-08-18T02:00:20.158Z,4.97
2022-08-18T02:02:58.696Z,5.25
2022-08-18T02:05:37.748Z,5.05
2022-08-18T02:08:07.034Z,4.62
2022-08-18T02:10:36.432Z,4.95
2022-08-18T02:13:04.164Z,5.20
2022-08-18T02:15:33.243Z,4.45
2022-08-18T02:18:00.935Z,5.55
2022-08-18T02:20:28.874Z,5.65
2022-08-18T02:22:56.607Z,3.53
2022-08-18T02:25:24.289Z,4.80
2022-08-18T02:27:52.451Z,4.35
2022-08-18T02:30:20.590Z,5.15
2022-08-18T02:32:48.821Z,5.22
2022-08-18T02:35:16.737Z,4.68
2022-08-18T02:37:49.018Z,3.85
2022-08-18T02:40:18.249Z,3.72
2022-08-18T02:42:47.703Z,3.97
2022-08-18T02:45:15.669Z,3.60
2022-08-18T02:47:44.509Z,4.07
2022-08-18T02:50:13.919Z,4.82
2022-08-18T02:52:42.400Z,5.35
2022-08-18T02:55:10.934Z,5.15
2022-08-18T02:57:44.597Z,4.60
2022-08-18T03:00:16.224Z,4.55
2022-08-18T03:02:52.538Z,4.90
2022-08-18T03:05:20.403Z,5.72
2022-08-18T03:07:48.166Z,4.93
2022-08-18T03:10:32.283Z,4.37
2022-08-18T03:13:01.428Z,4.53
2022-08-18T03:15:29.188Z,5.50
2022-08-18T03:17:57.288Z,4.68
2022-08-18T03:20:30.787Z,5.37
2022-08-18T03:22:59.589Z,4.65
2022-08-18T03:25:33.709Z,4.90
2022-08-18T03:28:01.494Z,5.25
2022-08-18T03:30:29.139Z,4.05
2022-08-18T03:32:56.854Z,3.87
2022-08-18T03:35:24.537Z,4.72
2022-08-18T03:37:52.678Z,6.87
2022-08-18T03:40:20.793Z,4.45
2022-08-18T03:42:48.461Z,4.07
2022-08-18T03:45:17.699Z,5.32
2022-08-18T03:47:46.906Z,3.97
2022-08-18T03:50:14.722Z,4.15
2022-08-18T03:52:42.491Z,5.03
2022-08-18T03:55:10.776Z,4.22
2022-08-18T03:57:39.369Z,4.12
2022-08-18T04:00:08.242Z,4.68
2022-08-18T04:02:35.898Z,4.72
2022-08-18T04:05:05.374Z,4.37
2022-08-18T04:07:33.448Z,5.87
2022-08-18T04:10:01.225Z,5.35
2022-08-18T04:12:28.940Z,4.78
2022-08-18T04:14:56.581Z,4.30
2022-08-18T04:17:27.003Z,4.72
2022-08-18T04:19:56.396Z,5.32
2022-08-18T04:22:25.976Z,5.07
2022-08-18T04:24:54.907Z,4.90
2022-08-18T04:27:23.927Z,4.72
2022-08-18T04:29:51.968Z,4.70
2022-08-18T04:32:20.569Z,5.28
2022-08-18T04:34:48.307Z,5.47
2022-08-18T04:37:17.056Z,4.60
2022-08-18T04:39:45.639Z,4.43
2022-08-18T04:42:13.550Z,6.53
2022-08-18T04:44:41.345Z,4.87
2022-08-18T04:47:10.504Z,4.30
2022-08-18T04:49:38.286Z,4.72
2022-08-18T04:52:39.867Z,4.85
2022-08-18T04:55:09.785Z,6.43
2022-08-18T04:57:37.663Z,7.10
2022-08-18T05:00:07.257Z,6.05
2022-08-18T05:02:34.993Z,5.68
2022-08-18T05:05:04.894Z,5.85
2022-08-18T05:07:33.032Z,5.60
2022-08-18T05:10:00.766Z,5.78
2022-08-18T05:12:29.973Z,7.60
2022-08-18T05:14:58.041Z,5.82
2022-08-18T05:17:30.423Z,5.93
2022-08-18T05:20:02.682Z,5.82
2022-08-18T05:22:31.961Z,7.12
2022-08-18T05:25:01.257Z,5.18
2022-08-18T05:27:34.146Z,5.47
2022-08-18T05:30:03.437Z,4.43
2022-08-18T05:32:47.091Z,5.20
2022-08-18T05:35:22.130Z,5.37
2022-08-18T05:38:04.870Z,4.55
2022-08-18T05:40:33.065Z,5.80
2022-08-18T05:43:01.447Z,5.68
2022-08-18T05:45:29.491Z,6.12
2022-08-18T05:48:01.025Z,5.87
2022-08-18T05:50:30.560Z,6.22
2022-08-18T05:53:05.571Z,6.55
2022-08-18T05:56:18.473Z,6.05
2022-08-18T05:58:51.916Z,5.30
2022-08-18T06:01:25.114Z,6.18
2022-08-18T06:04:02.733Z,5.70
2022-08-18T06:06:33.105Z,5.75
2022-08-18T06:09:29.101Z,8.27
2022-08-18T06:12:23.762Z,6.82
2022-08-18T06:14:51.905Z,6.12
2022-08-18T06:17:32.259Z,6.50
2022-08-18T06:20:20.119Z,7.22
2022-08-18T06:22:59.715Z,5.82
2022-08-18T06:25:56.623Z,5.05
2022-08-18T06:28:24.595Z,7.22
2022-08-18T06:31:12.093Z,5.47
2022-08-18T06:33:40.477Z,6.60
2022-08-18T06:36:21.750Z,5.47
2022-08-18T06:39:05.610Z,5.72
2022-08-18T06:41:59.716Z,5.85
2022-08-18T06:44:41.678Z,5.47
2022-08-18T06:47:19.179Z,5.45
2022-08-18T06:50:04.137Z,6.00
2022-08-18T06:52:34.639Z,5.25
2022-08-18T06:55:08.172Z,5.75
2022-08-18T06:57:39.648Z,5.37
2022-08-18T07:00:32.568Z,5.55
2022-08-18T07:03:09.023Z,6.10
2022-08-18T07:05:38.400Z,6.57
2022-08-18T07:08:15.571Z,6.47
2022-08-18T07:10:49.539Z,6.68
2022-08-18T07:13:30.338Z,6.00
2022-08-18T07:16:56.554Z,5.53
2022-08-18T07:19:21.814Z,5.22
2022-08-18T07:22:10.444Z,5.80
2022-08-18T07:24:47.133Z,5.37
2022-08-18T07:27:21.498Z,5.55
2022-08-18T07:30:09.369Z,4.65
2022-08-18T07:32:52.392Z,5.75
2022-08-18T07:35:29.094Z,5.90
2022-08-18T07:38:18.638Z,5.62
2022-08-18T07:41:15.707Z,6.45
2022-08-18T07:44:04.530Z,6.07
2022-08-18T07:46:36.577Z,8.85
2022-08-18T07:49:05.702Z,6.15
2022-08-18T07:51:58.198Z,6.18
2022-08-18T07:54:57.804Z,5.62
2022-08-18T07:57:41.863Z,6.10
2022-08-18T08:00:26.781Z,6.30
2022-08-18T08:03:44.293Z,6.93
2022-08-18T08:06:28.707Z,6.85
2022-08-18T08:09:18.074Z,7.28
2022-08-18T08:11:59.731Z,6.97
2022-08-18T08:14:29.980Z,6.00
2022-08-18T08:17:06.032Z,6.50
2022-08-18T08:19:58.993Z,6.47
2022-08-18T08:22:31.767Z,7.57
2022-08-18T08:25:22.630Z,5.30
2022-08-18T08:28:04.170Z,7.45
2022-08-18T08:30:36.962Z,5.65
2022-08-18T08:33:20.531Z,6.20
2022-08-18T08:36:04.020Z,9.27
2022-08-18T08:38:42.693Z,5.80
2022-08-18T08:41:23.127Z,6.22
2022-08-18T08:44:01.607Z,7.22
2022-08-18T08:46:35.022Z,6.37
2022-08-18T08:49:28.935Z,5.55
2022-08-18T08:52:03.473Z,6.28
2022-08-18T08:54:58.092Z,6.60
2022-08-18T08:57:35.083Z,8.05
2022-08-18T09:00:06.299Z,6.53
2022-08-18T09:03:07.743Z,5.25
2022-08-18T09:05:56.781Z,5.65
2022-08-18T09:08:43.975Z,6.47
2022-08-18T09:11:40.965Z,6.87
2022-08-18T09:14:14.786Z,5.32
2022-08-18T09:17:18.558Z,5.53
2022-08-18T09:19:59.808Z,5.47
2022-08-18T09:22:53.210Z,5.12
2022-08-18T09:25:42.945Z,5.70
2022-08-18T09:28:29.116Z,6.97
2022-08-18T09:31:02.952Z,5.70
2022-08-18T09:33:41.935Z,4.68
2022-08-18T09:36:37.359Z,7.50
2022-08-18T09:39:48.050Z,5.37
2022-08-18T09:42:49.881Z,4.80
2022-08-18T09:45:34.314Z,5.90
2022-08-18T09:48:20.658Z,6.20
2022-08-18T09:51:24.487Z,6.55
2022-08-18T09:53:55.062Z,7.10
2022-08-18T09:56:54.449Z,7.10
2022-08-18T09:59:35.432Z,6.32
2022-08-18T10:02:33.100Z,6.45
2022-08-18T10:05:16.809Z,6.65
2022-08-18T10:07:54.348Z,6.43
2022-08-18T10:11:00.502Z,6.30
2022-08-18T10:13:48.270Z,7.18
2022-08-18T10:16:57.546Z,6.68
2022-08-18T10:19:49.815Z,6.03
2022-08-18T10:22:44.662Z,6.00
2022-08-18T10:25:22.687Z,6.47
2022-08-18T10:28:06.529Z,6.75
2022-08-18T10:30:56.754Z,6.07
2022-08-18T10:34:00.985Z,5.55
2022-08-18T10:36:45.909Z,5.80
2022-08-18T10:39:22.158Z,5.85
2022-08-18T10:42:19.263Z,5.35
2022-08-18T10:44:51.594Z,6.65
2022-08-18T10:47:33.687Z,5.75
2022-08-18T10:50:06.337Z,5.53
2022-08-18T10:55:50.121Z,6.35
2022-08-18T10:58:24.071Z,6.45
2022-08-18T11:01:14.326Z,7.93
2022-08-18T11:04:13.850Z,6.75
2022-08-18T11:06:48.871Z,6.20
2022-08-18T11:09:30.284Z,8.30
2022-08-18T11:12:03.195Z,6.18
2022-08-18T11:15:23.133Z,6.12
2022-08-18T11:18:18.204Z,6.22
2022-08-18T11:20:47.404Z,6.10
2022-08-18T11:23:18.326Z,5.78
2022-08-18T11:25:46.317Z,5.72
2022-08-18T11:28:23.077Z,5.80
2022-08-18T11:30:58.881Z,6.32
2022-08-18T11:33:28.861Z,6.00
2022-08-18T11:36:02.165Z,6.45
2022-08-18T11:38:33.162Z,5.45
2022-08-18T11:41:20.487Z,5.87
2022-08-18T11:43:50.441Z,6.70
2022-08-18T11:46:28.106Z,5.50
2022-08-18T11:49:01.616Z,4.90
2022-08-18T11:51:33.203Z,5.12
2022-08-18T11:54:23.235Z,5.10
2022-08-18T11:56:52.365Z,5.07
2022-08-18T11:59:52.562Z,4.75
2022-08-18T12:02:22.834Z,4.80
2022-08-18T12:04:57.380Z,4.37
2022-08-18T12:07:57.570Z,3.97
2022-08-18T12:10:29.750Z,3.87
2022-08-18T12:13:01.358Z,4.37
2022-08-18T12:15:44.300Z,3.87
2022-08-18T12:18:28.450Z,4.00
2022-08-18T12:21:02.754Z,5.87
2022-08-18T12:23:38.326Z,3.83
2022-08-18T12:26:07.233Z,6.47
2022-08-18T12:28:54.944Z,4.32
2022-08-18T12:31:42.395Z,4.70
2022-08-18T12:34:24.907Z,4.55
2022-08-18T12:36:57.916Z,4.30
2022-08-18T12:39:26.168Z,4.03
2022-08-18T12:41:53.979Z,4.82
2022-08-18T12:44:21.849Z,4.53
2022-08-18T12:46:50.289Z,4.60
2022-08-18T12:49:25.227Z,4.85
2022-08-18T12:51:56.564Z,4.30
2022-08-18T12:54:26.593Z,4.97
2022-08-18T12:56:58.724Z,4.10
2022-08-18T12:59:27.241Z,4.68
2022-08-18T13:02:00.786Z,4.30
2022-08-18T13:04:28.747Z,4.55
2022-08-18T13:07:01.967Z,4.70
2022-08-18T13:09:53.995Z,4.40
2022-08-18T13:12:24.257Z,4.07
2022-08-18T13:14:52.359Z,5.50
2022-08-18T13:17:32.061Z,4.87
2022-08-18T13:20:14.248Z,5.05
2022-08-18T13:22:42.666Z,5.57
2022-08-18T13:25:33.183Z,4.30
2022-08-18T13:28:03.368Z,4.20
2022-08-18T13:30:32.882Z,4.47
2022-08-18T13:33:05.225Z,5.37
2022-08-18T13:35:52.301Z,4.12
2022-08-18T13:38:25.677Z,4.43
2022-08-18T13:40:59.036Z,4.30
2022-08-18T13:43:37.889Z,4.85
2022-08-18T13:46:09.313Z,4.45
2022-08-18T13:48:38.888Z,4.07
2022-08-18T13:51:12.081Z,4.65
2022-08-18T13:53:52.202Z,3.97
2022-08-18T13:56:31.665Z,4.15
2022-08-18T13:58:59.646Z,4.82
2022-08-18T14:01:51.353Z,4.25
2022-08-18T14:04:20.448Z,4.37
2022-08-18T14:06:56.266Z,3.85
2022-08-18T14:09:35.760Z,4.22
2022-08-18T14:12:15.513Z,4.18
2022-08-18T14:14:52.377Z,4.45
2022-08-18T14:17:22.284Z,5.50
2022-08-18T14:20:15.390Z,5.03
2022-08-18T14:23:10.628Z,4.65
2022-08-18T14:25:57.328Z,4.62
2022-08-18T14:28:28.516Z,4.85
2022-08-18T14:30:58.114Z,4.90
2022-08-18T14:33:34.525Z,6.85
2022-08-18T14:36:18.289Z,4.90
2022-08-18T14:38:46.272Z,4.12
2022-08-18T14:41:19.973Z,4.47
2022-08-18T14:44:11.629Z,4.70
2022-08-18T14:46:41.855Z,7.28
2022-08-18T14:49:29.438Z,6.95
2022-08-18T14:52:02.031Z,5.55
2022-08-18T14:54:32.978Z,5.30
2022-08-18T14:57:06.530Z,6.20
2022-08-18T14:59:37.766Z,6.68
2022-08-18T15:02:07.665Z,6.20
2022-08-18T15:04:56.087Z,7.03
2022-08-18T15:07:26.079Z,6.37
2022-08-18T15:10:14.980Z,6.10
2022-08-18T15:12:42.395Z,6.05
2022-08-18T15:15:17.998Z,6.22
2022-08-18T15:17:52.337Z,5.72
2022-08-18T15:20:28.680Z,6.12
2022-08-18T15:23:22.887Z,5.43
2022-08-18T15:25:56.522Z,6.15
2022-08-18T15:28:27.426Z,7.10
2022-08-18T15:33:43.265Z,5.90
2022-08-18T15:36:28.804Z,5.85
2022-08-18T15:38:57.873Z,6.55
2022-08-18T15:41:44.069Z,7.57
2022-08-18T15:44:12.308Z,6.93
2022-08-18T15:46:40.403Z,6.20
2022-08-18T15:49:14.925Z,6.10
2022-08-18T15:51:45.593Z,6.75
2022-08-18T15:54:13.522Z,7.18
2022-08-18T15:56:43.347Z,7.20
2022-08-18T15:59:12.718Z,7.30
2022-08-18T16:01:43.469Z,6.60
2022-08-18T16:04:11.792Z,6.50
2022-08-18T16:06:41.982Z,6.20
2022-08-18T16:09:13.423Z,7.12
2022-08-18T16:11:42.115Z,7.60
2022-08-18T16:14:10.285Z,7.22
2022-08-18T16:16:38.337Z,8.25
2022-08-18T16:19:07.783Z,7.30
2022-08-18T16:21:41.160Z,7.25
2022-08-18T16:24:09.615Z,8.13
2022-08-18T16:26:37.273Z,8.32
2022-08-18T16:29:05.018Z,8.13
2022-08-18T16:31:32.701Z,9.13
2022-08-18T16:34:00.382Z,9.75
2022-08-18T16:36:28.102Z,9.27
2022-08-18T16:38:58.654Z,9.15
2022-08-18T16:41:27.652Z,10.77
2022-08-18T16:43:55.805Z,10.73
2022-08-18T16:46:28.204Z,10.88
2022-08-18T16:48:58.096Z,11.30
2022-08-18T16:51:29.388Z,11.95
2022-08-18T16:53:57.079Z,11.40
2022-08-18T16:56:27.722Z,12.25
2022-08-18T16:59:14.981Z,11.73
2022-08-18T17:02:01.959Z,14.40
2022-08-18T17:04:34.787Z,12.70
2022-08-18T17:07:07.291Z,15.07
2022-08-18T17:09:35.998Z,14.60
2022-08-18T17:12:03.947Z,14.90
2022-08-18T17:14:33.166Z,14.63
2022-08-18T17:17:01.648Z,16.30
2022-08-18T17:19:34.285Z,14.80
2022-08-18T17:22:04.360Z,13.40
2022-08-18T17:24:32.764Z,15.70
2022-08-18T17:27:26.430Z,13.13
2022-08-18T17:30:04.810Z,13.05
2022-08-18T17:32:55.331Z,13.73
2022-08-18T17:35:29.053Z,13.45
2022-08-18T17:38:16.242Z,13.90
2022-08-18T17:40:50.513Z,13.82
2022-08-18T17:43:21.204Z,12.90
2022-08-18T17:45:56.076Z,12.82
2022-08-18T17:48:29.752Z,13.43
2022-08-18T17:51:29.686Z,11.85
2022-08-18T17:54:02.076Z,13.65
2022-08-18T17:56:37.466Z,12.37
2022-08-18T17:59:46.181Z,12.35
2022-08-18T18:02:29.919Z,12.90
2022-08-18T18:05:00.387Z,12.68
2022-08-18T18:07:39.530Z,12.75
2022-08-18T18:10:10.430Z,13.73
2022-08-18T18:12:39.825Z,14.77
2022-08-18T18:15:11.385Z,14.30
2022-08-18T18:17:42.721Z,15.23
2022-08-18T18:20:19.563Z,14.40
2022-08-18T18:22:47.305Z,20.60
2022-08-18T18:25:34.315Z,15.60
2022-08-18T18:28:02.784Z,14.57
2022-08-18T18:30:30.957Z,14.45
2022-08-18T18:33:04.006Z,13.88
2022-08-18T18:35:54.857Z,15.05
2022-08-18T18:38:25.785Z,14.25
2022-08-18T18:41:13.431Z,16.27
2022-08-18T18:43:47.921Z,15.68
2022-08-18T18:46:20.351Z,17.40
2022-08-18T18:49:15.979Z,15.05
2022-08-18T18:52:07.287Z,16.02
2022-08-18T18:54:50.459Z,17.60
2022-08-18T18:58:00.946Z,14.00
2022-08-18T19:00:53.884Z,16.27
2022-08-18T19:03:27.513Z,14.07
2022-08-18T19:06:00.784Z,15.52
2022-08-18T19:08:40.783Z,14.38
2022-08-18T19:11:45.990Z,12.77
2022-08-18T19:14:22.080Z,13.73
2022-08-18T19:16:52.784Z,15.70
2022-08-18T19:19:36.805Z,13.77
2022-08-18T19:22:18.773Z,13.62
2022-08-18T19:24:55.367Z,13.48
2022-08-18T19:27:39.308Z,12.63
2022-08-18T19:30:12.974Z,14.13
2022-08-18T19:32:45.394Z,13.60
2022-08-18T19:35:23.185Z,14.20
2022-08-18T19:38:08.935Z,12.00
2022-08-18T19:40:39.519Z,12.65
2022-08-18T19:43:13.652Z,13.60
2022-08-18T19:46:03.153Z,13.55
2022-08-18T19:48:44.045Z,13.10
2022-08-18T19:51:39.618Z,12.77
2022-08-18T19:54:10.328Z,11.02
2022-08-18T19:56:53.749Z,14.57
2022-08-18T19:59:51.673Z,11.95
2022-08-18T20:02:39.894Z,11.95
2022-08-18T20:05:24.994Z,11.73
2022-08-18T20:08:13.003Z,12.20
2022-08-18T20:11:12.084Z,13.88
2022-08-18T20:13:43.557Z,11.88
2022-08-18T20:16:28.535Z,12.05
2022-08-18T20:19:39.422Z,13.45
2022-08-18T20:22:16.173Z,14.57
2022-08-18T20:25:00.706Z,12.57
2022-08-18T20:27:39.753Z,12.25
2022-08-18T20:30:34.210Z,12.65
2022-08-18T20:33:11.107Z,11.57
2022-08-18T20:35:53.066Z,11.85
2022-08-18T20:38:37.562Z,12.13
2022-08-18T20:41:44.718Z,12.77
2022-08-18T20:44:30.691Z,13.43
2022-08-18T20:47:16.179Z,10.85
2022-08-18T20:50:08.910Z,10.65
2022-08-18T20:52:57.329Z,11.57
2022-08-18T20:55:53.390Z,10.77
2022-08-18T20:58:26.406Z,11.27
2022-08-18T21:00:58.161Z,11.23
2022-08-18T21:03:39.593Z,11.32
2022-08-18T21:06:08.578Z,10.65
2022-08-18T21:08:38.694Z,15.23
2022-08-18T21:11:21.054Z,11.88
2022-08-18T21:14:04.055Z,12.00
2022-08-18T21:16:46.627Z,10.15
2022-08-18T21:19:21.699Z,10.20
2022-08-18T21:21:52.845Z,10.30
2022-08-18T21:24:38.776Z,9.30
2022-08-18T21:27:16.195Z,11.57
2022-08-18T21:29:49.102Z,9.98
2022-08-18T21:32:28.914Z,10.65
2022-08-18T21:34:56.581Z,10.73
2022-08-18T21:37:24.270Z,11.45
2022-08-18T21:39:57.810Z,10.35
2022-08-18T21:42:31.175Z,10.93
2022-08-18T21:45:01.103Z,11.77
2022-08-18T21:47:35.802Z,13.52
2022-08-18T21:50:17.268Z,12.63
2022-08-18T21:53:01.790Z,12.80
2022-08-18T21:55:48.391Z,12.18
2022-08-18T21:58:18.669Z,13.68
2022-08-18T22:01:11.760Z,11.55
2022-08-18T22:04:01.950Z,11.45
2022-08-18T22:06:35.457Z,12.00
2022-08-18T22:09:30.922Z,10.30
2022-08-18T22:12:41.963Z,11.40
2022-08-18T22:15:20.665Z,10.50
2022-08-18T22:17:54.002Z,12.27
2022-08-18T22:20:39.339Z,10.52
2022-08-18T22:23:27.783Z,10.20
2022-08-18T22:26:13.461Z,11.80
2022-08-18T22:29:11.348Z,9.77
2022-08-18T22:31:42.851Z,10.38
2022-08-18T22:34:14.666Z,8.50
2022-08-18T22:36:46.667Z,8.50
2022-08-18T22:39:23.700Z,8.15
2022-08-18T22:41:51.441Z,8.45
2022-08-18T22:44:19.149Z,7.60
2022-08-18T22:46:46.870Z,7.70
2022-08-18T22:49:14.565Z,9.15
2022-08-18T22:51:42.433Z,8.02
2022-08-18T22:54:11.971Z,8.00
2022-08-18T22:56:40.234Z,8.68
2022-08-18T22:59:22.705Z,8.63
2022-08-18T23:01:52.198Z,9.35
2022-08-18T23:04:22.236Z,8.82
2022-08-18T23:06:53.228Z,9.60
2022-08-18T23:09:32.532Z,11.30
2022-08-18T23:12:11.135Z,10.10
2022-08-18T23:14:39.233Z,10.80
2022-08-18T23:17:08.852Z,9.18
2022-08-18T23:19:36.509Z,15.05
2022-08-18T23:22:06.258Z,10.63
2022-08-18T23:24:33.933Z,12.82
2022-08-18T23:27:01.720Z,10.95
2022-08-18T23:29:29.436Z,10.95
2022-08-18T23:31:57.082Z,9.80
2022-08-18T23:34:25.778Z,9.50
2022-08-18T23:36:57.927Z,9.05
2022-08-18T23:39:26.818Z,8.85
2022-08-18T23:41:55.371Z,8.35
2022-08-18T23:44:27.341Z,8.45
2022-08-18T23:46:56.575Z,9.43
2022-08-18T23:49:24.565Z,7.37
2022-08-18T23:51:55.468Z,8.13
2022-08-18T23:54:28.213Z,6.50
2022-08-18T23:56:56.170Z,6.10
2022-08-18T23:59:25.700Z,5.85
